EZY96CP EGGW-EHAM
Flight info
| Callsign | EZY96CP |
|---|---|
| Flight time | 0h 38m |
| Altitude | 25000 |
| Route | MATCH Q295 BRAIN M197 REDFA |
| Aircraft | A319/M-SDE3FGHIRWY/LB1 |
Departure
| Time | 2026-04-27 19:51 |
|---|---|
| Airport | London Luton Airport (EGGW) |
Arrival
| Time | 2026-04-27 20:30 |
|---|---|
| Airport | Amsterdam Airport Schiphol (EHAM) |
| Time | Latitude | Longitude | Altitude | Speed | Heading |
|---|---|---|---|---|---|
| 2026-04-27 19:26 | 51.88052 | -0.37779 | 536 ft | 0 kts | 127° |
| 2026-04-27 19:40 | 51.88056 | -0.37787 | 536 ft | 2 kts | 130° |
| 2026-04-27 19:41 | 51.88070 | -0.37808 | 536 ft | 3 kts | 152° |
| 2026-04-27 19:41 | 51.88088 | -0.37819 | 536 ft | 3 kts | 177° |
| 2026-04-27 19:41 | 51.88097 | -0.37819 | 536 ft | 0 kts | 184° |
| 2026-04-27 19:43 | 51.88095 | -0.37822 | 536 ft | 1 kts | 201° |
| 2026-04-27 19:44 | 51.88078 | -0.37849 | 536 ft | 6 kts | 226° |
| 2026-04-27 19:44 | 51.88042 | -0.37901 | 536 ft | 8 kts | 220° |
| 2026-04-27 19:44 | 51.87999 | -0.37957 | 537 ft | 8 kts | 216° |
| 2026-04-27 19:44 | 51.87958 | -0.37999 | 537 ft | 6 kts | 203° |
| 2026-04-27 19:45 | 51.87912 | -0.38013 | 537 ft | 7 kts | 179° |
| 2026-04-27 19:45 | 51.87859 | -0.37995 | 537 ft | 8 kts | 160° |
| 2026-04-27 19:45 | 51.87815 | -0.37937 | 537 ft | 9 kts | 128° |
| 2026-04-27 19:45 | 51.87782 | -0.37845 | 537 ft | 10 kts | 116° |
| 2026-04-27 19:46 | 51.87751 | -0.37737 | 536 ft | 11 kts | 115° |
| 2026-04-27 19:46 | 51.87716 | -0.37616 | 536 ft | 11 kts | 116° |
| 2026-04-27 19:46 | 51.87673 | -0.37503 | 536 ft | 13 kts | 137° |
| 2026-04-27 19:46 | 51.87591 | -0.37457 | 536 ft | 13 kts | 176° |
| 2026-04-27 19:47 | 51.87512 | -0.37515 | 536 ft | 13 kts | 238° |
| 2026-04-27 19:47 | 51.87485 | -0.37656 | 536 ft | 13 kts | 254° |
| 2026-04-27 19:47 | 51.87459 | -0.37801 | 537 ft | 14 kts | 254° |
| 2026-04-27 19:47 | 51.87434 | -0.37942 | 537 ft | 13 kts | 255° |
| 2026-04-27 19:48 | 51.87381 | -0.38053 | 538 ft | 13 kts | 209° |
| 2026-04-27 19:48 | 51.87371 | -0.38061 | 538 ft | 0 kts | 207° |
| 2026-04-27 19:48 | 51.87366 | -0.38066 | 538 ft | 3 kts | 207° |
| 2026-04-27 19:48 | 51.87334 | -0.38092 | 538 ft | 8 kts | 205° |
| 2026-04-27 19:49 | 51.87275 | -0.38099 | 538 ft | 9 kts | 151° |
| 2026-04-27 19:49 | 51.87262 | -0.38012 | 538 ft | 0 kts | 74° |
| 2026-04-27 19:50 | 51.87263 | -0.38008 | 538 ft | 2 kts | 74° |
| 2026-04-27 19:51 | 51.87289 | -0.37845 | 538 ft | 46 kts | 76° |
| 2026-04-27 19:51 | 51.87448 | -0.36936 | 536 ft | 119 kts | 74° |
| 2026-04-27 19:51 | 51.87699 | -0.35469 | 949 ft | 136 kts | 73° |
| 2026-04-27 19:51 | 51.87935 | -0.33971 | 1664 ft | 136 kts | 71° |
| 2026-04-27 19:52 | 51.88192 | -0.32441 | 2205 ft | 151 kts | 70° |
| 2026-04-27 19:52 | 51.88396 | -0.31289 | 2516 ft | 165 kts | 70° |
| 2026-04-27 19:52 | 51.88861 | -0.28698 | 3096 ft | 197 kts | 70° |
| 2026-04-27 19:52 | 51.89265 | -0.26435 | 3624 ft | 222 kts | 70° |
| 2026-04-27 19:53 | 51.89013 | -0.21066 | 4823 ft | 275 kts | 122° |
| 2026-04-27 19:53 | 51.87580 | -0.18986 | 4976 ft | 281 kts | 147° |
| 2026-04-27 19:53 | 51.85830 | -0.17586 | 5008 ft | 282 kts | 157° |
| 2026-04-27 19:54 | 51.83981 | -0.16463 | 5219 ft | 286 kts | 160° |
| 2026-04-27 19:54 | 51.82111 | -0.15382 | 6419 ft | 285 kts | 160° |
| 2026-04-27 19:54 | 51.80242 | -0.14251 | 7477 ft | 288 kts | 160° |
| 2026-04-27 19:54 | 51.78370 | -0.13043 | 8436 ft | 294 kts | 159° |
| 2026-04-27 19:55 | 51.76615 | -0.11278 | 9329 ft | 303 kts | 134° |
| 2026-04-27 19:55 | 51.75555 | -0.08373 | 10371 ft | 303 kts | 104° |
| 2026-04-27 19:55 | 51.75407 | -0.05003 | 11130 ft | 309 kts | 81° |
| 2026-04-27 19:55 | 51.75674 | -0.01430 | 11493 ft | 332 kts | 79° |
| 2026-04-27 19:56 | 51.76004 | 0.02347 | 12046 ft | 345 kts | 79° |
| 2026-04-27 19:56 | 51.76351 | 0.06221 | 12873 ft | 351 kts | 79° |
| 2026-04-27 19:56 | 51.76697 | 0.10136 | 13742 ft | 355 kts | 79° |
| 2026-04-27 19:56 | 51.77038 | 0.14102 | 14530 ft | 359 kts | 79° |
| 2026-04-27 19:57 | 51.77371 | 0.18084 | 15230 ft | 365 kts | 79° |
| 2026-04-27 19:57 | 51.77706 | 0.22186 | 15909 ft | 372 kts | 79° |
| 2026-04-27 19:57 | 51.78043 | 0.26365 | 16592 ft | 378 kts | 79° |
| 2026-04-27 19:57 | 51.78384 | 0.30610 | 17262 ft | 384 kts | 79° |
| 2026-04-27 19:58 | 51.78730 | 0.34916 | 17925 ft | 390 kts | 78° |
| 2026-04-27 19:58 | 51.79080 | 0.39288 | 18590 ft | 396 kts | 78° |
| 2026-04-27 19:58 | 51.79435 | 0.43726 | 19191 ft | 400 kts | 78° |
| 2026-04-27 19:58 | 51.79792 | 0.48214 | 19843 ft | 404 kts | 79° |
| 2026-04-27 19:59 | 51.80147 | 0.52726 | 20538 ft | 407 kts | 80° |
| 2026-04-27 19:59 | 51.80501 | 0.57286 | 21174 ft | 410 kts | 80° |
| 2026-04-27 19:59 | 51.80858 | 0.61893 | 21830 ft | 414 kts | 81° |
| 2026-04-27 19:59 | 51.81310 | 0.66495 | 22507 ft | 415 kts | 74° |
| 2026-04-27 20:00 | 51.82007 | 0.71045 | 23121 ft | 419 kts | 73° |
| 2026-04-27 20:00 | 51.82720 | 0.75637 | 23706 ft | 423 kts | 73° |
| 2026-04-27 20:00 | 51.83432 | 0.80222 | 24187 ft | 427 kts | 73° |
| 2026-04-27 20:00 | 51.84194 | 0.84956 | 24684 ft | 430 kts | 72° |
| 2026-04-27 20:01 | 51.85007 | 0.89555 | 25112 ft | 432 kts | 71° |
| 2026-04-27 20:01 | 51.85875 | 0.94213 | 25247 ft | 432 kts | 70° |
| 2026-04-27 20:01 | 51.86765 | 0.98897 | 25283 ft | 429 kts | 71° |
| 2026-04-27 20:01 | 51.87641 | 1.03517 | 25277 ft | 431 kts | 71° |
| 2026-04-27 20:02 | 51.88496 | 1.08104 | 25278 ft | 432 kts | 72° |
| 2026-04-27 20:02 | 51.89341 | 1.12759 | 25277 ft | 432 kts | 72° |
| 2026-04-27 20:02 | 51.90175 | 1.17439 | 25280 ft | 432 kts | 72° |
| 2026-04-27 20:02 | 51.91000 | 1.22114 | 25280 ft | 432 kts | 72° |
| 2026-04-27 20:03 | 51.91827 | 1.26790 | 25279 ft | 432 kts | 72° |
| 2026-04-27 20:03 | 51.92661 | 1.31471 | 25278 ft | 432 kts | 72° |
| 2026-04-27 20:03 | 51.93497 | 1.36144 | 25278 ft | 432 kts | 72° |
| 2026-04-27 20:03 | 51.94334 | 1.40817 | 25280 ft | 432 kts | 72° |
| 2026-04-27 20:04 | 51.95166 | 1.45496 | 25276 ft | 432 kts | 72° |
| 2026-04-27 20:04 | 51.95991 | 1.50181 | 25274 ft | 433 kts | 73° |
| 2026-04-27 20:04 | 51.96816 | 1.54882 | 25260 ft | 434 kts | 73° |
| 2026-04-27 20:04 | 51.97362 | 1.57997 | 25257 ft | 435 kts | 73° |
| 2026-04-27 20:05 | 51.98468 | 1.64318 | 25248 ft | 436 kts | 73° |
| 2026-04-27 20:05 | 51.99293 | 1.69048 | 25263 ft | 436 kts | 73° |
| 2026-04-27 20:05 | 52.00084 | 1.73809 | 25265 ft | 437 kts | 74° |
| 2026-04-27 20:05 | 52.00838 | 1.78599 | 25267 ft | 437 kts | 75° |
| 2026-04-27 20:06 | 52.01560 | 1.83337 | 25268 ft | 438 kts | 75° |
| 2026-04-27 20:06 | 52.02281 | 1.88146 | 25269 ft | 438 kts | 75° |
| 2026-04-27 20:06 | 52.03000 | 1.92944 | 25277 ft | 438 kts | 75° |
| 2026-04-27 20:06 | 52.03727 | 1.97739 | 25293 ft | 437 kts | 76° |
| 2026-04-27 20:07 | 52.04462 | 2.02535 | 25289 ft | 437 kts | 76° |
| 2026-04-27 20:07 | 52.05200 | 2.07340 | 25288 ft | 438 kts | 76° |
| 2026-04-27 20:07 | 52.05938 | 2.12139 | 25286 ft | 438 kts | 76° |
| 2026-04-27 20:07 | 52.06673 | 2.16946 | 25285 ft | 438 kts | 76° |
| 2026-04-27 20:08 | 52.07405 | 2.21741 | 25285 ft | 438 kts | 76° |
| 2026-04-27 20:08 | 52.07891 | 2.24934 | 25283 ft | 438 kts | 76° |
| 2026-04-27 20:08 | 52.08618 | 2.29736 | 25284 ft | 438 kts | 76° |
| 2026-04-27 20:08 | 52.09340 | 2.34540 | 24980 ft | 437 kts | 76° |
| 2026-04-27 20:09 | 52.10059 | 2.39354 | 24360 ft | 436 kts | 76° |
| 2026-04-27 20:09 | 52.10772 | 2.44129 | 23810 ft | 433 kts | 76° |
| 2026-04-27 20:09 | 52.11686 | 2.48763 | 23297 ft | 428 kts | 66° |
| 2026-04-27 20:09 | 52.13509 | 2.54403 | 22723 ft | 422 kts | 58° |
| 2026-04-27 20:10 | 52.14514 | 2.57169 | 22466 ft | 419 kts | 58° |
| 2026-04-27 20:10 | 52.15993 | 2.61247 | 22081 ft | 415 kts | 58° |
| 2026-04-27 20:10 | 52.17432 | 2.65225 | 21704 ft | 411 kts | 58° |
| 2026-04-27 20:10 | 52.18893 | 2.69278 | 21320 ft | 407 kts | 58° |
| 2026-04-27 20:11 | 52.20301 | 2.73189 | 20946 ft | 403 kts | 58° |
| 2026-04-27 20:11 | 52.21712 | 2.77110 | 20572 ft | 399 kts | 58° |
| 2026-04-27 20:11 | 52.23106 | 2.80993 | 20207 ft | 395 kts | 58° |
| 2026-04-27 20:11 | 52.24491 | 2.84855 | 19837 ft | 391 kts | 58° |
| 2026-04-27 20:12 | 52.25858 | 2.88668 | 19488 ft | 387 kts | 59° |
| 2026-04-27 20:12 | 52.27211 | 2.92450 | 19125 ft | 384 kts | 59° |
| 2026-04-27 20:12 | 52.28550 | 2.96198 | 18773 ft | 381 kts | 59° |
| 2026-04-27 20:12 | 52.29882 | 2.99924 | 18394 ft | 379 kts | 59° |
| 2026-04-27 20:13 | 52.31206 | 3.03643 | 18033 ft | 377 kts | 59° |
| 2026-04-27 20:13 | 52.32519 | 3.07335 | 17679 ft | 374 kts | 59° |
| 2026-04-27 20:13 | 52.33825 | 3.11012 | 17345 ft | 373 kts | 59° |
| 2026-04-27 20:13 | 52.35118 | 3.14660 | 16999 ft | 369 kts | 59° |
| 2026-04-27 20:14 | 52.36404 | 3.18291 | 16642 ft | 368 kts | 59° |
| 2026-04-27 20:14 | 52.37684 | 3.21905 | 16313 ft | 365 kts | 59° |
| 2026-04-27 20:14 | 52.38952 | 3.25486 | 15974 ft | 363 kts | 58° |
| 2026-04-27 20:14 | 52.40212 | 3.29055 | 15639 ft | 361 kts | 59° |
| 2026-04-27 20:15 | 52.41458 | 3.32600 | 15310 ft | 357 kts | 58° |
| 2026-04-27 20:15 | 52.42695 | 3.36126 | 14981 ft | 356 kts | 58° |
| 2026-04-27 20:15 | 52.43920 | 3.39627 | 14661 ft | 352 kts | 58° |
| 2026-04-27 20:15 | 52.44909 | 3.43241 | 14339 ft | 352 kts | 69° |
| 2026-04-27 20:16 | 52.45527 | 3.47166 | 13994 ft | 350 kts | 76° |
| 2026-04-27 20:16 | 52.46072 | 3.50993 | 13656 ft | 349 kts | 76° |
| 2026-04-27 20:16 | 52.46625 | 3.54874 | 13332 ft | 349 kts | 76° |
| 2026-04-27 20:16 | 52.47176 | 3.58734 | 13008 ft | 345 kts | 76° |
| 2026-04-27 20:17 | 52.47719 | 3.62538 | 12682 ft | 341 kts | 75° |
| 2026-04-27 20:17 | 52.48258 | 3.66317 | 12372 ft | 339 kts | 76° |
| 2026-04-27 20:17 | 52.48794 | 3.70069 | 12060 ft | 337 kts | 75° |
| 2026-04-27 20:17 | 52.49327 | 3.73807 | 11749 ft | 336 kts | 75° |
| 2026-04-27 20:18 | 52.49858 | 3.77531 | 11441 ft | 334 kts | 76° |
| 2026-04-27 20:18 | 52.50384 | 3.81232 | 11136 ft | 333 kts | 76° |
| 2026-04-27 20:18 | 52.50889 | 3.84934 | 10823 ft | 332 kts | 79° |
| 2026-04-27 20:18 | 52.50850 | 3.88677 | 10540 ft | 326 kts | 103° |
| 2026-04-27 20:19 | 52.49915 | 3.91968 | 10401 ft | 314 kts | 127° |
| 2026-04-27 20:19 | 52.48530 | 3.94644 | 10278 ft | 301 kts | 132° |
| 2026-04-27 20:19 | 52.47142 | 3.97168 | 9997 ft | 296 kts | 132° |
| 2026-04-27 20:19 | 52.45772 | 3.99666 | 9645 ft | 293 kts | 133° |
| 2026-04-27 20:20 | 52.44439 | 4.02154 | 9310 ft | 288 kts | 132° |
| 2026-04-27 20:20 | 52.43113 | 4.04586 | 8944 ft | 284 kts | 133° |
| 2026-04-27 20:20 | 52.41790 | 4.06984 | 8521 ft | 283 kts | 132° |
| 2026-04-27 20:20 | 52.40461 | 4.09365 | 8116 ft | 282 kts | 132° |
| 2026-04-27 20:21 | 52.39151 | 4.11687 | 7731 ft | 279 kts | 132° |
| 2026-04-27 20:21 | 52.37821 | 4.14022 | 7305 ft | 279 kts | 133° |
| 2026-04-27 20:21 | 52.36488 | 4.16326 | 6870 ft | 279 kts | 132° |
| 2026-04-27 20:21 | 52.35150 | 4.18608 | 6451 ft | 277 kts | 133° |
| 2026-04-27 20:22 | 52.33812 | 4.20862 | 5990 ft | 276 kts | 132° |
| 2026-04-27 20:22 | 52.32471 | 4.23097 | 5570 ft | 274 kts | 132° |
| 2026-04-27 20:22 | 52.31138 | 4.25270 | 5128 ft | 274 kts | 132° |
| 2026-04-27 20:22 | 52.29791 | 4.27454 | 4718 ft | 271 kts | 133° |
| 2026-04-27 20:23 | 52.28461 | 4.29621 | 4299 ft | 269 kts | 132° |
| 2026-04-27 20:23 | 52.27131 | 4.31755 | 3877 ft | 267 kts | 132° |
| 2026-04-27 20:23 | 52.25811 | 4.33870 | 3450 ft | 265 kts | 133° |
| 2026-04-27 20:23 | 52.24517 | 4.35981 | 2996 ft | 261 kts | 130° |
| 2026-04-27 20:24 | 52.23406 | 4.38281 | 2559 ft | 256 kts | 122° |
| 2026-04-27 20:24 | 52.22355 | 4.40603 | 2148 ft | 252 kts | 123° |
| 2026-04-27 20:24 | 52.21348 | 4.42886 | 2013 ft | 246 kts | 122° |
| 2026-04-27 20:24 | 52.20394 | 4.45202 | 2013 ft | 245 kts | 113° |
| 2026-04-27 20:25 | 52.19980 | 4.47883 | 2018 ft | 243 kts | 90° |
| 2026-04-27 20:25 | 52.20150 | 4.50452 | 2012 ft | 213 kts | 72° |
| 2026-04-27 20:25 | 52.20715 | 4.52516 | 2006 ft | 189 kts | 58° |
| 2026-04-27 20:25 | 52.21368 | 4.54191 | 2022 ft | 162 kts | 58° |
| 2026-04-27 20:26 | 52.21928 | 4.55637 | 2011 ft | 140 kts | 57° |
| 2026-04-27 20:26 | 52.22418 | 4.56903 | 2012 ft | 128 kts | 59° |
| 2026-04-27 20:26 | 52.22877 | 4.58091 | 2012 ft | 124 kts | 58° |
| 2026-04-27 20:26 | 52.23342 | 4.59292 | 1972 ft | 122 kts | 59° |
| 2026-04-27 20:27 | 52.23795 | 4.60464 | 1859 ft | 122 kts | 58° |
| 2026-04-27 20:27 | 52.24243 | 4.61622 | 1722 ft | 121 kts | 57° |
| 2026-04-27 20:27 | 52.24693 | 4.62786 | 1556 ft | 121 kts | 57° |
| 2026-04-27 20:27 | 52.25138 | 4.63940 | 1414 ft | 119 kts | 58° |
| 2026-04-27 20:28 | 52.25583 | 4.65090 | 1260 ft | 120 kts | 57° |
| 2026-04-27 20:28 | 52.26024 | 4.66233 | 1081 ft | 118 kts | 57° |
| 2026-04-27 20:28 | 52.26462 | 4.67369 | 925 ft | 118 kts | 56° |
| 2026-04-27 20:28 | 52.26753 | 4.68123 | 817 ft | 119 kts | 57° |
| 2026-04-27 20:29 | 52.27342 | 4.69650 | 632 ft | 119 kts | 55° |
| 2026-04-27 20:29 | 52.27787 | 4.70794 | 452 ft | 119 kts | 55° |
| 2026-04-27 20:29 | 52.28224 | 4.71929 | 339 ft | 117 kts | 55° |
| 2026-04-27 20:29 | 52.28661 | 4.73079 | 171 ft | 119 kts | 56° |
| 2026-04-27 20:30 | 52.29103 | 4.74231 | 34 ft | 117 kts | 57° |
| 2026-04-27 20:30 | 52.29464 | 4.75162 | 13 ft | 76 kts | 58° |
| 2026-04-27 20:30 | 52.29641 | 4.75623 | 17 ft | 26 kts | 55° |
| 2026-04-27 20:30 | 52.29779 | 4.75800 | 17 ft | 24 kts | 28° |
| 2026-04-27 20:31 | 52.29904 | 4.75907 | 12 ft | 13 kts | 27° |
| 2026-04-27 20:31 | 52.29955 | 4.75951 | 13 ft | 4 kts | 28° |
| 2026-04-27 20:31 | 52.29965 | 4.75959 | 15 ft | 1 kts | 28° |
| 2026-04-27 20:31 | 52.29968 | 4.75962 | 14 ft | 0 kts | 32° |
| 2026-04-27 20:32 | 52.29976 | 4.75971 | 13 ft | 4 kts | 36° |
| 2026-04-27 20:32 | 52.30016 | 4.76049 | 12 ft | 11 kts | 57° |
| 2026-04-27 20:32 | 52.30065 | 4.76175 | 12 ft | 14 kts | 55° |
| 2026-04-27 20:32 | 52.30117 | 4.76313 | 15 ft | 14 kts | 58° |
| 2026-04-27 20:33 | 52.30173 | 4.76457 | 13 ft | 16 kts | 58° |
| 2026-04-27 20:33 | 52.30228 | 4.76601 | 14 ft | 13 kts | 59° |
| 2026-04-27 20:33 | 52.30284 | 4.76745 | 11 ft | 15 kts | 57° |
| 2026-04-27 20:33 | 52.30338 | 4.76886 | 12 ft | 15 kts | 58° |
| 2026-04-27 20:34 | 52.30398 | 4.77043 | 9 ft | 18 kts | 58° |
| 2026-04-27 20:34 | 52.30447 | 4.77175 | 11 ft | 10 kts | 57° |
| 2026-04-27 20:34 | 52.30487 | 4.77278 | 11 ft | 11 kts | 57° |
| 2026-04-27 20:34 | 52.30532 | 4.77396 | 12 ft | 13 kts | 58° |
| 2026-04-27 20:35 | 52.30571 | 4.77495 | 14 ft | 8 kts | 57° |
| 2026-04-27 20:35 | 52.30613 | 4.77561 | 14 ft | 9 kts | 24° |
| 2026-04-27 20:35 | 52.30682 | 4.77590 | 14 ft | 11 kts | 1° |
| 2026-04-27 20:35 | 52.30763 | 4.77598 | 13 ft | 13 kts | 3° |
| 2026-04-27 20:36 | 52.30857 | 4.77606 | 13 ft | 14 kts | 4° |
| 2026-04-27 20:36 | 52.30963 | 4.77617 | 12 ft | 16 kts | 3° |
| 2026-04-27 20:36 | 52.31073 | 4.77627 | 14 ft | 15 kts | 4° |
| 2026-04-27 20:36 | 52.31183 | 4.77637 | 14 ft | 17 kts | 2° |
| 2026-04-27 20:37 | 52.31293 | 4.77648 | 14 ft | 15 kts | 3° |
| 2026-04-27 20:37 | 52.31393 | 4.77656 | 16 ft | 15 kts | 359° |
| 2026-04-27 20:37 | 52.31495 | 4.77588 | 12 ft | 14 kts | 319° |
| 2026-04-27 20:37 | 52.31562 | 4.77461 | 12 ft | 15 kts | 300° |
| 2026-04-27 20:38 | 52.31576 | 4.77273 | 10 ft | 18 kts | 269° |
| 2026-04-27 20:38 | 52.31569 | 4.77063 | 10 ft | 19 kts | 268° |
| 2026-04-27 20:38 | 52.31561 | 4.76854 | 14 ft | 19 kts | 265° |
| 2026-04-27 20:38 | 52.31554 | 4.76641 | 13 ft | 18 kts | 266° |
| 2026-04-27 20:39 | 52.31550 | 4.76467 | 18 ft | 13 kts | 264° |
| 2026-04-27 20:39 | 52.31545 | 4.76316 | 17 ft | 14 kts | 266° |
| 2026-04-27 20:39 | 52.31538 | 4.76145 | 17 ft | 15 kts | 267° |
| 2026-04-27 20:39 | 52.31532 | 4.75974 | 18 ft | 15 kts | 266° |
| 2026-04-27 20:40 | 52.31526 | 4.75779 | 13 ft | 19 kts | 267° |
| 2026-04-27 20:40 | 52.31519 | 4.75557 | 14 ft | 19 kts | 266° |
| 2026-04-27 20:40 | 52.31446 | 4.75469 | 10 ft | 16 kts | 176° |
| 2026-04-27 20:40 | 52.31330 | 4.75479 | 7 ft | 14 kts | 176° |
| 2026-04-27 20:41 | 52.31226 | 4.75488 | 5 ft | 14 kts | 176° |
| 2026-04-27 20:41 | 52.31127 | 4.75494 | 0 ft | 13 kts | 188° |
| 2026-04-27 20:41 | 52.31086 | 4.75449 | -1 ft | 5 kts | 223° |
| 2026-04-27 20:41 | 52.31060 | 4.75431 | -1 ft | 4 kts | 174° |
| 2026-04-27 20:42 | 52.31036 | 4.75453 | -2 ft | 3 kts | 148° |
| 2026-04-27 20:42 | 52.31024 | 4.75464 | -2 ft | 0 kts | 148° |